sensor_id;sensor_type;location;lat;lon;timestamp;temperature;humidity
51739;DHT22;37815;52.692;6.226;2022-07-24T00:02:30;20.90;86.90
51739;DHT22;37815;52.692;6.226;2022-07-24T00:07:31;20.90;87.00
51739;DHT22;37815;52.692;6.226;2022-07-24T00:12:32;20.90;87.00
51739;DHT22;37815;52.692;6.226;2022-07-24T00:17:33;20.80;86.90
51739;DHT22;37815;52.692;6.226;2022-07-24T00:22:33;20.80;86.90
51739;DHT22;37815;52.692;6.226;2022-07-24T00:27:34;20.80;86.90
51739;DHT22;37815;52.692;6.226;2022-07-24T00:32:35;20.80;87.00
51739;DHT22;37815;52.692;6.226;2022-07-24T00:37:36;20.70;87.00
51739;DHT22;37815;52.692;6.226;2022-07-24T00:42:36;20.70;87.00
51739;DHT22;37815;52.692;6.226;2022-07-24T00:47:37;20.70;87.00
51739;DHT22;37815;52.692;6.226;2022-07-24T00:52:38;20.70;87.10
51739;DHT22;37815;52.692;6.226;2022-07-24T00:57:39;20.70;87.10
51739;DHT22;37815;52.692;6.226;2022-07-24T01:02:44;20.70;87.20
51739;DHT22;37815;52.692;6.226;2022-07-24T01:07:45;20.60;87.10
51739;DHT22;37815;52.692;6.226;2022-07-24T01:12:46;20.60;87.10
51739;DHT22;37815;52.692;6.226;2022-07-24T01:17:47;20.60;87.20
51739;DHT22;37815;52.692;6.226;2022-07-24T01:22:47;20.50;87.20
51739;DHT22;37815;52.692;6.226;2022-07-24T01:27:48;20.50;87.20
51739;DHT22;37815;52.692;6.226;2022-07-24T01:32:49;20.50;87.20
51739;DHT22;37815;52.692;6.226;2022-07-24T01:37:53;20.50;87.20
51739;DHT22;37815;52.692;6.226;2022-07-24T01:42:54;20.50;87.20
51739;DHT22;37815;52.692;6.226;2022-07-24T01:47:55;20.40;87.20
51739;DHT22;37815;52.692;6.226;2022-07-24T01:52:55;20.40;87.20
51739;DHT22;37815;52.692;6.226;2022-07-24T01:57:57;20.40;87.20
51739;DHT22;37815;52.692;6.226;2022-07-24T02:02:58;20.40;87.80
51739;DHT22;37815;52.692;6.226;2022-07-24T02:07:59;20.40;87.30
51739;DHT22;37815;52.692;6.226;2022-07-24T02:13:00;20.30;87.20
51739;DHT22;37815;52.692;6.226;2022-07-24T02:18:02;20.30;87.20
51739;DHT22;37815;52.692;6.226;2022-07-24T02:23:03;20.30;87.20
51739;DHT22;37815;52.692;6.226;2022-07-24T02:28:03;20.30;87.20
51739;DHT22;37815;52.692;6.226;2022-07-24T02:33:04;20.30;87.20
51739;DHT22;37815;52.692;6.226;2022-07-24T02:38:05;20.20;87.20
51739;DHT22;37815;52.692;6.226;2022-07-24T02:43:06;20.20;87.20
51739;DHT22;37815;52.692;6.226;2022-07-24T02:48:06;20.20;87.20
51739;DHT22;37815;52.692;6.226;2022-07-24T02:53:07;20.20;87.30
51739;DHT22;37815;52.692;6.226;2022-07-24T02:58:08;20.20;87.30
51739;DHT22;37815;52.692;6.226;2022-07-24T03:03:09;20.20;87.30
51739;DHT22;37815;52.692;6.226;2022-07-24T03:08:10;20.20;87.30
51739;DHT22;37815;52.692;6.226;2022-07-24T03:13:10;20.10;87.30
51739;DHT22;37815;52.692;6.226;2022-07-24T03:18:12;20.10;87.30
51739;DHT22;37815;52.692;6.226;2022-07-24T03:23:13;20.10;87.30
51739;DHT22;37815;52.692;6.226;2022-07-24T03:28:13;20.10;87.30
51739;DHT22;37815;52.692;6.226;2022-07-24T03:33:14;20.00;87.30
51739;DHT22;37815;52.692;6.226;2022-07-24T03:38:15;20.00;87.30
51739;DHT22;37815;52.692;6.226;2022-07-24T03:43:16;20.00;87.30
51739;DHT22;37815;52.692;6.226;2022-07-24T03:48:16;20.00;87.30
51739;DHT22;37815;52.692;6.226;2022-07-24T03:53:17;20.00;87.30
51739;DHT22;37815;52.692;6.226;2022-07-24T03:58:17;20.00;87.30
51739;DHT22;37815;52.692;6.226;2022-07-24T04:03:18;20.00;87.30
51739;DHT22;37815;52.692;6.226;2022-07-24T04:08:19;20.00;87.40
51739;DHT22;37815;52.692;6.226;2022-07-24T04:13:20;20.00;87.40
51739;DHT22;37815;52.692;6.226;2022-07-24T04:18:21;19.90;87.30
51739;DHT22;37815;52.692;6.226;2022-07-24T04:23:22;19.90;87.40
51739;DHT22;37815;52.692;6.226;2022-07-24T04:28:22;19.90;87.40
51739;DHT22;37815;52.692;6.226;2022-07-24T04:33:23;19.90;87.40
51739;DHT22;37815;52.692;6.226;2022-07-24T04:38:24;19.90;87.40
51739;DHT22;37815;52.692;6.226;2022-07-24T04:43:24;19.90;87.40
51739;DHT22;37815;52.692;6.226;2022-07-24T04:48:25;19.90;87.50
51739;DHT22;37815;52.692;6.226;2022-07-24T04:53:26;19.90;87.50
51739;DHT22;37815;52.692;6.226;2022-07-24T04:58:27;19.90;87.50
51739;DHT22;37815;52.692;6.226;2022-07-24T05:03:28;19.80;87.40
51739;DHT22;37815;52.692;6.226;2022-07-24T05:08:28;19.80;87.50
51739;DHT22;37815;52.692;6.226;2022-07-24T05:13:29;19.80;87.50
51739;DHT22;37815;52.692;6.226;2022-07-24T05:18:30;19.80;87.50
51739;DHT22;37815;52.692;6.226;2022-07-24T05:23:30;19.80;87.50
51739;DHT22;37815;52.692;6.226;2022-07-24T05:28:32;19.80;87.50
51739;DHT22;37815;52.692;6.226;2022-07-24T05:33:33;19.80;87.50
51739;DHT22;37815;52.692;6.226;2022-07-24T05:38:34;19.80;87.50
51739;DHT22;37815;52.692;6.226;2022-07-24T05:43:35;19.80;87.50
51739;DHT22;37815;52.692;6.226;2022-07-24T05:48:36;19.80;87.50
51739;DHT22;37815;52.692;6.226;2022-07-24T05:53:36;19.90;87.60
51739;DHT22;37815;52.692;6.226;2022-07-24T05:58:37;19.80;87.50
51739;DHT22;37815;52.692;6.226;2022-07-24T06:03:38;19.90;87.70
51739;DHT22;37815;52.692;6.226;2022-07-24T06:08:39;19.90;87.60
51739;DHT22;37815;52.692;6.226;2022-07-24T06:13:40;19.90;87.60
51739;DHT22;37815;52.692;6.226;2022-07-24T06:18:40;19.90;87.60
51739;DHT22;37815;52.692;6.226;2022-07-24T06:23:41;19.90;87.70
51739;DHT22;37815;52.692;6.226;2022-07-24T06:28:42;19.90;87.70
51739;DHT22;37815;52.692;6.226;2022-07-24T06:55:06;20.00;87.70
51739;DHT22;37815;52.692;6.226;2022-07-24T07:00:08;20.00;87.40
51739;DHT22;37815;52.692;6.226;2022-07-24T07:05:10;20.00;87.30
51739;DHT22;37815;52.692;6.226;2022-07-24T07:10:11;20.50;87.60
51739;DHT22;37815;52.692;6.226;2022-07-24T07:15:11;20.10;87.30
51739;DHT22;37815;52.692;6.226;2022-07-24T07:20:12;20.10;87.30
51739;DHT22;37815;52.692;6.226;2022-07-24T07:25:13;20.10;87.30
51739;DHT22;37815;52.692;6.226;2022-07-24T07:30:14;19.90;87.20
51739;DHT22;37815;52.692;6.226;2022-07-24T07:35:14;20.20;87.90
51739;DHT22;37815;52.692;6.226;2022-07-24T07:40:15;20.20;87.30
51739;DHT22;37815;52.692;6.226;2022-07-24T07:45:16;20.20;87.30
51739;DHT22;37815;52.692;6.226;2022-07-24T07:50:17;20.30;87.30
51739;DHT22;37815;52.692;6.226;2022-07-24T07:55:18;20.40;87.20
51739;DHT22;37815;52.692;6.226;2022-07-24T08:00:18;20.40;87.10
51739;DHT22;37815;52.692;6.226;2022-07-24T08:05:20;20.50;87.00
51739;DHT22;37815;52.692;6.226;2022-07-24T08:10:21;20.60;87.00
51739;DHT22;37815;52.692;6.226;2022-07-24T08:15:21;20.60;86.80
51739;DHT22;37815;52.692;6.226;2022-07-24T08:20:23;20.70;86.90
51739;DHT22;37815;52.692;6.226;2022-07-24T08:25:25;20.70;87.00
51739;DHT22;37815;52.692;6.226;2022-07-24T08:30:26;20.80;87.00
51739;DHT22;37815;52.692;6.226;2022-07-24T08:35:27;20.80;87.10
51739;DHT22;37815;52.692;6.226;2022-07-24T08:40:39;20.80;87.10
51739;DHT22;37815;52.692;6.226;2022-07-24T08:45:41;20.90;87.20
51739;DHT22;37815;52.692;6.226;2022-07-24T08:50:43;20.80;87.10
51739;DHT22;37815;52.692;6.226;2022-07-24T08:55:43;20.90;87.10
51739;DHT22;37815;52.692;6.226;2022-07-24T09:00:45;21.00;87.10
51739;DHT22;37815;52.692;6.226;2022-07-24T09:05:56;21.00;87.10
51739;DHT22;37815;52.692;6.226;2022-07-24T09:10:59;21.10;87.10
51739;DHT22;37815;52.692;6.226;2022-07-24T09:16:00;21.20;87.00
51739;DHT22;37815;52.692;6.226;2022-07-24T09:21:15;21.20;86.80
51739;DHT22;37815;52.692;6.226;2022-07-24T09:26:15;21.30;86.80
51739;DHT22;37815;52.692;6.226;2022-07-24T09:31:16;21.40;86.60
51739;DHT22;37815;52.692;6.226;2022-07-24T09:36:18;21.40;86.50
51739;DHT22;37815;52.692;6.226;2022-07-24T10:09:16;22.80;85.30
51739;DHT22;37815;52.692;6.226;2022-07-24T10:14:22;22.90;84.40
51739;DHT22;37815;52.692;6.226;2022-07-24T10:19:26;23.00;83.80
51739;DHT22;37815;52.692;6.226;2022-07-24T10:25:05;23.20;83.30
51739;DHT22;37815;52.692;6.226;2022-07-24T10:30:08;23.20;83.30
51739;DHT22;37815;52.692;6.226;2022-07-24T10:35:17;23.50;83.50
51739;DHT22;37815;52.692;6.226;2022-07-24T10:45:19;23.60;83.00
51739;DHT22;37815;52.692;6.226;2022-07-24T10:50:19;23.60;82.90
51739;DHT22;37815;52.692;6.226;2022-07-24T10:55:33;23.70;82.50
51739;DHT22;37815;52.692;6.226;2022-07-24T11:00:38;23.80;81.90
51739;DHT22;37815;52.692;6.226;2022-07-24T11:05:39;23.90;82.00
51739;DHT22;37815;52.692;6.226;2022-07-24T11:10:54;24.00;81.60
51739;DHT22;37815;52.692;6.226;2022-07-24T11:21:10;24.10;80.80
51739;DHT22;37815;52.692;6.226;2022-07-24T11:31:31;24.40;80.50
51739;DHT22;37815;52.692;6.226;2022-07-24T11:36:34;24.20;80.40
51739;DHT22;37815;52.692;6.226;2022-07-24T11:41:53;24.30;79.70
51739;DHT22;37815;52.692;6.226;2022-07-24T11:46:54;24.50;78.80
51739;DHT22;37815;52.692;6.226;2022-07-24T11:51:57;24.60;79.00
51739;DHT22;37815;52.692;6.226;2022-07-24T11:56:57;24.80;78.80
51739;DHT22;37815;52.692;6.226;2022-07-24T12:02:07;25.00;78.40
51739;DHT22;37815;52.692;6.226;2022-07-24T12:07:16;25.10;77.60
51739;DHT22;37815;52.692;6.226;2022-07-24T12:12:23;25.20;77.50
51739;DHT22;37815;52.692;6.226;2022-07-24T12:17:24;25.30;77.30
51739;DHT22;37815;52.692;6.226;2022-07-24T12:22:26;25.40;77.40
51739;DHT22;37815;52.692;6.226;2022-07-24T12:27:41;25.50;77.00
51739;DHT22;37815;52.692;6.226;2022-07-24T12:32:53;25.50;75.50
51739;DHT22;37815;52.692;6.226;2022-07-24T12:37:56;25.70;76.10
51739;DHT22;37815;52.692;6.226;2022-07-24T12:43:10;25.80;76.40
51739;DHT22;37815;52.692;6.226;2022-07-24T12:48:21;25.80;75.00
51739;DHT22;37815;52.692;6.226;2022-07-24T12:53:22;25.90;74.60
51739;DHT22;37815;52.692;6.226;2022-07-24T12:58:22;26.00;74.90
51739;DHT22;37815;52.692;6.226;2022-07-24T13:03:26;26.10;74.60
51739;DHT22;37815;52.692;6.226;2022-07-24T13:08:27;26.20;74.20
51739;DHT22;37815;52.692;6.226;2022-07-24T13:13:28;26.30;74.00
51739;DHT22;37815;52.692;6.226;2022-07-24T13:18:28;26.50;73.90
51739;DHT22;37815;52.692;6.226;2022-07-24T13:23:29;26.60;73.40
51739;DHT22;37815;52.692;6.226;2022-07-24T13:28:32;26.70;73.00
51739;DHT22;37815;52.692;6.226;2022-07-24T13:33:33;26.90;72.90
51739;DHT22;37815;52.692;6.226;2022-07-24T13:38:33;27.10;72.50
51739;DHT22;37815;52.692;6.226;2022-07-24T13:43:34;27.20;72.20
51739;DHT22;37815;52.692;6.226;2022-07-24T13:48:35;27.40;72.30
51739;DHT22;37815;52.692;6.226;2022-07-24T13:53:36;27.50;72.10
51739;DHT22;37815;52.692;6.226;2022-07-24T13:58:37;27.70;72.10
51739;DHT22;37815;52.692;6.226;2022-07-24T14:03:38;27.80;72.10
51739;DHT22;37815;52.692;6.226;2022-07-24T14:08:41;27.90;71.90
51739;DHT22;37815;52.692;6.226;2022-07-24T14:13:42;28.10;71.40
51739;DHT22;37815;52.692;6.226;2022-07-24T14:18:43;28.20;71.20
51739;DHT22;37815;52.692;6.226;2022-07-24T14:23:44;28.30;71.00
51739;DHT22;37815;52.692;6.226;2022-07-24T14:28:45;28.40;70.40
51739;DHT22;37815;52.692;6.226;2022-07-24T14:33:45;28.50;70.70
51739;DHT22;37815;52.692;6.226;2022-07-24T14:38:46;28.70;70.70
51739;DHT22;37815;52.692;6.226;2022-07-24T14:43:47;28.80;70.50
51739;DHT22;37815;52.692;6.226;2022-07-24T14:48:48;28.80;70.20
51739;DHT22;37815;52.692;6.226;2022-07-24T14:53:48;28.90;70.20
51739;DHT22;37815;52.692;6.226;2022-07-24T14:58:49;28.90;70.10
51739;DHT22;37815;52.692;6.226;2022-07-24T15:03:50;29.00;70.10
51739;DHT22;37815;52.692;6.226;2022-07-24T15:08:50;29.10;70.80
51739;DHT22;37815;52.692;6.226;2022-07-24T15:13:52;29.10;70.60
51739;DHT22;37815;52.692;6.226;2022-07-24T15:18:53;29.20;70.50
51739;DHT22;37815;52.692;6.226;2022-07-24T15:23:53;29.30;70.30
51739;DHT22;37815;52.692;6.226;2022-07-24T15:28:54;29.30;70.10
51739;DHT22;37815;52.692;6.226;2022-07-24T15:33:55;29.30;69.80
51739;DHT22;37815;52.692;6.226;2022-07-24T15:38:55;29.30;69.80
51739;DHT22;37815;52.692;6.226;2022-07-24T15:43:56;29.30;69.50
51739;DHT22;37815;52.692;6.226;2022-07-24T15:48:57;29.30;69.50
51739;DHT22;37815;52.692;6.226;2022-07-24T15:53:58;29.30;70.10
51739;DHT22;37815;52.692;6.226;2022-07-24T15:58:59;29.30;70.10
51739;DHT22;37815;52.692;6.226;2022-07-24T16:04:00;29.20;70.30
51739;DHT22;37815;52.692;6.226;2022-07-24T16:09:00;29.20;70.50
51739;DHT22;37815;52.692;6.226;2022-07-24T16:14:01;28.90;71.10
51739;DHT22;37815;52.692;6.226;2022-07-24T16:19:02;28.80;71.40
51739;DHT22;37815;52.692;6.226;2022-07-24T16:24:03;28.60;71.40
51739;DHT22;37815;52.692;6.226;2022-07-24T16:29:04;28.50;71.70
51739;DHT22;37815;52.692;6.226;2022-07-24T16:34:05;28.40;72.00
51739;DHT22;37815;52.692;6.226;2022-07-24T16:49:40;28.20;72.50
51739;DHT22;37815;52.692;6.226;2022-07-24T16:54:41;28.10;72.80
51739;DHT22;37815;52.692;6.226;2022-07-24T16:59:42;28.00;73.00
51739;DHT22;37815;52.692;6.226;2022-07-24T17:04:43;27.90;73.10
51739;DHT22;37815;52.692;6.226;2022-07-24T17:09:43;27.80;73.20
51739;DHT22;37815;52.692;6.226;2022-07-24T17:14:45;27.80;73.40
51739;DHT22;37815;52.692;6.226;2022-07-24T17:19:46;27.70;73.30
51739;DHT22;37815;52.692;6.226;2022-07-24T17:24:48;27.70;73.40
51739;DHT22;37815;52.692;6.226;2022-07-24T17:29:50;27.60;73.50
51739;DHT22;37815;52.692;6.226;2022-07-24T17:34:50;27.60;73.80
51739;DHT22;37815;52.692;6.226;2022-07-24T17:39:52;27.50;73.90
51739;DHT22;37815;52.692;6.226;2022-07-24T17:44:52;27.40;74.30
51739;DHT22;37815;52.692;6.226;2022-07-24T17:49:53;27.40;74.30
51739;DHT22;37815;52.692;6.226;2022-07-24T17:54:54;27.40;74.40
51739;DHT22;37815;52.692;6.226;2022-07-24T17:59:55;27.30;74.50
51739;DHT22;37815;52.692;6.226;2022-07-24T18:04:55;27.30;74.90
51739;DHT22;37815;52.692;6.226;2022-07-24T18:09:56;27.20;74.80
51739;DHT22;37815;52.692;6.226;2022-07-24T18:14:57;27.20;75.30
51739;DHT22;37815;52.692;6.226;2022-07-24T18:19:58;27.10;75.60
51739;DHT22;37815;52.692;6.226;2022-07-24T18:24:58;27.10;76.00
51739;DHT22;37815;52.692;6.226;2022-07-24T18:29:59;27.00;76.20
51739;DHT22;37815;52.692;6.226;2022-07-24T18:35:00;27.00;76.50
51739;DHT22;37815;52.692;6.226;2022-07-24T18:40:01;26.90;77.20
51739;DHT22;37815;52.692;6.226;2022-07-24T18:45:02;26.90;77.70
51739;DHT22;37815;52.692;6.226;2022-07-24T18:50:04;26.70;78.10
51739;DHT22;37815;52.692;6.226;2022-07-24T18:55:06;26.90;79.00
51739;DHT22;37815;52.692;6.226;2022-07-24T19:00:07;26.50;79.60
51739;DHT22;37815;52.692;6.226;2022-07-24T19:05:11;26.40;80.30
51739;DHT22;37815;52.692;6.226;2022-07-24T19:10:12;26.30;81.20
51739;DHT22;37815;52.692;6.226;2022-07-24T19:15:12;26.20;81.70
51739;DHT22;37815;52.692;6.226;2022-07-24T19:20:13;26.10;82.20
51739;DHT22;37815;52.692;6.226;2022-07-24T19:25:14;26.10;82.70
51739;DHT22;37815;52.692;6.226;2022-07-24T19:30:15;26.00;83.10
51739;DHT22;37815;52.692;6.226;2022-07-24T19:35:16;26.00;83.20
51739;DHT22;37815;52.692;6.226;2022-07-24T19:40:17;26.00;83.00
51739;DHT22;37815;52.692;6.226;2022-07-24T19:45:18;26.10;82.90
51739;DHT22;37815;52.692;6.226;2022-07-24T19:50:18;26.10;82.80
51739;DHT22;37815;52.692;6.226;2022-07-24T19:55:19;26.10;82.70
51739;DHT22;37815;52.692;6.226;2022-07-24T20:00:20;26.00;82.60
51739;DHT22;37815;52.692;6.226;2022-07-24T20:05:21;26.00;82.60
51739;DHT22;37815;52.692;6.226;2022-07-24T20:10:21;26.00;82.60
51739;DHT22;37815;52.692;6.226;2022-07-24T20:15:22;26.00;82.60
51739;DHT22;37815;52.692;6.226;2022-07-24T20:20:23;26.00;82.60
51739;DHT22;37815;52.692;6.226;2022-07-24T20:25:24;25.90;82.60
51739;DHT22;37815;52.692;6.226;2022-07-24T20:30:25;25.90;82.60
51739;DHT22;37815;52.692;6.226;2022-07-24T20:35:26;25.90;82.60
51739;DHT22;37815;52.692;6.226;2022-07-24T20:40:27;25.80;82.60
51739;DHT22;37815;52.692;6.226;2022-07-24T20:45:27;25.80;82.70
51739;DHT22;37815;52.692;6.226;2022-07-24T20:50:28;25.70;82.60
51739;DHT22;37815;52.692;6.226;2022-07-24T20:55:29;25.70;82.70
51739;DHT22;37815;52.692;6.226;2022-07-24T21:00:30;25.70;82.80
51739;DHT22;37815;52.692;6.226;2022-07-24T21:05:30;25.60;82.70
51739;DHT22;37815;52.692;6.226;2022-07-24T21:10:31;25.60;82.80
51739;DHT22;37815;52.692;6.226;2022-07-24T21:15:32;25.50;82.80
51739;DHT22;37815;52.692;6.226;2022-07-24T21:20:33;25.50;82.80
51739;DHT22;37815;52.692;6.226;2022-07-24T21:25:33;25.50;82.90
51739;DHT22;37815;52.692;6.226;2022-07-24T21:30:34;25.50;83.00
51739;DHT22;37815;52.692;6.226;2022-07-24T21:35:36;25.40;83.00
51739;DHT22;37815;52.692;6.226;2022-07-24T21:40:37;25.40;83.00
51739;DHT22;37815;52.692;6.226;2022-07-24T21:45:38;25.30;82.90
51739;DHT22;37815;52.692;6.226;2022-07-24T21:50:39;25.30;82.90
51739;DHT22;37815;52.692;6.226;2022-07-24T21:55:39;25.30;82.90
51739;DHT22;37815;52.692;6.226;2022-07-24T22:00:43;25.30;83.00
51739;DHT22;37815;52.692;6.226;2022-07-24T22:05:44;25.20;83.00
51739;DHT22;37815;52.692;6.226;2022-07-24T22:10:45;25.20;83.00
51739;DHT22;37815;52.692;6.226;2022-07-24T22:15:46;25.20;83.00
51739;DHT22;37815;52.692;6.226;2022-07-24T22:20:47;25.20;83.00
51739;DHT22;37815;52.692;6.226;2022-07-24T22:25:48;25.20;83.00
51739;DHT22;37815;52.692;6.226;2022-07-24T22:30:48;25.10;83.00
51739;DHT22;37815;52.692;6.226;2022-07-24T22:35:50;25.10;83.00
51739;DHT22;37815;52.692;6.226;2022-07-24T22:40:51;25.10;83.00
51739;DHT22;37815;52.692;6.226;2022-07-24T22:45:53;25.00;83.00
51739;DHT22;37815;52.692;6.226;2022-07-24T22:50:55;25.00;83.00
51739;DHT22;37815;52.692;6.226;2022-07-24T22:55:57;25.00;83.10
51739;DHT22;37815;52.692;6.226;2022-07-24T23:00:59;25.00;83.10
51739;DHT22;37815;52.692;6.226;2022-07-24T23:06:00;25.00;83.10
51739;DHT22;37815;52.692;6.226;2022-07-24T23:11:01;24.90;83.10
51739;DHT22;37815;52.692;6.226;2022-07-24T23:16:01;24.90;83.20
51739;DHT22;37815;52.692;6.226;2022-07-24T23:21:02;24.80;83.10
51739;DHT22;37815;52.692;6.226;2022-07-24T23:26:03;24.80;83.20
51739;DHT22;37815;52.692;6.226;2022-07-24T23:31:04;24.80;83.20
51739;DHT22;37815;52.692;6.226;2022-07-24T23:36:05;24.80;83.20
51739;DHT22;37815;52.692;6.226;2022-07-24T23:41:06;24.80;83.20
51739;DHT22;37815;52.692;6.226;2022-07-24T23:46:06;24.70;83.20
51739;DHT22;37815;52.692;6.226;2022-07-24T23:51:07;24.70;83.20
51739;DHT22;37815;52.692;6.226;2022-07-24T23:56:08;24.70;83.30
